NCAR-RAP Real-Time Weather Data

Output produced by METARs form (08 May 2021  15:41 UTC)
found at http://weather.rap.ucar.edu/surface/
 
KCHS 081456Z 32010KT 10SM CLR 22/03 A3011 RMK AO2 SLP195 T02220033 58001
KCHS 081356Z 29007KT 10SM CLR 21/04 A3012 RMK AO2 SLP198 T02060039
KCHS 081256Z 30007KT 10SM CLR 17/06 A3012 RMK AO2 SLP199 T01720061
KCHS 081156Z 30004KT 10SM CLR 13/06 A3011 RMK AO2 SLP196 T01330061 10133 20100 53019
KCHS 081056Z 30003KT 10SM CLR 10/06 A3009 RMK AO2 SLP189 T01000056
KCHS 080956Z 31006KT 10SM CLR 11/06 A3007 RMK AO2 SLP182 T01060056
KCHS 080856Z 00000KT 10SM FEW070 11/06 A3006 RMK AO2 SLP177 T01110061 53004
KCHS 080756Z 32004KT 10SM FEW070 11/07 A3005 RMK AO2 SLP174 T01110067
KCHS 080656Z 29004KT 10SM FEW070 12/07 A3004 RMK AO2 SLP172 T01220067
KCHS 080556Z 00000KT 10SM FEW070 12/07 A3004 RMK AO2 SLP173 T01220072 10206 20117 51006
KCHS 080456Z 00000KT 10SM FEW065 13/06 A3004 RMK AO2 SLP173 T01330061 402500122
KCHS 080356Z 32004KT 10SM FEW060 14/06 A3004 RMK AO2 SLP171 T01440061
KCHS 080256Z 31005KT 10SM FEW065 16/06 A3003 RMK AO2 SLP167 T01610056 51029
KCHS 080156Z 29004KT 10SM FEW047 17/06 A3000 RMK AO2 SLP158 T01720056
KCHS 080056Z 28005KT 10SM CLR 19/04 A2997 RMK AO2 SLP148 T01890044
KCHS 072356Z 30010KT 10SM FEW085 21/04 A2994 RMK AO2 SLP138 T02060039 10250 20206 53017
KCHS 072256Z 32012KT 10SM SCT080 22/04 A2992 RMK AO2 PK WND 31027/2221 SLP131 T02220039
KCHS 072156Z 29015G24KT 10SM SCT080 SCT090 23/04 A2990 RMK AO2 SLP125 T02330044
KCHS 072056Z 29019G24KT 10SM SCT080 24/04 A2989 RMK AO2 PK WND 33026/2039 SLP121 T02390044 55004
KCHS 071956Z 28016G24KT 10SM SCT080 24/04 A2989 RMK AO2 PK WND 32030/1901 SLP120 T02440044
KCHS 071856Z 30016G23KT 10SM SCT070 24/06 A2990 RMK AO2 PK WND 31026/1837 SLP123 T02440056
KCHS 071756Z 31017G24KT 10SM FEW065 23/07 A2990 RMK AO2 PK WND 29028/1709 SLP125 T02330067 10239 20150 58004
KCHS 071656Z 29016G24KT 10SM FEW060 23/07 A2991 RMK AO2 SLP128 T02330072
KCHS 071556Z 30015KT 10SM FEW060 22/07 A2992 RMK AO2 SLP130 T02220072
KCHS 071456Z 29015G23KT 10SM CLR 20/08 A2991 RMK AO2 SLP129 T02000078 51007
KCHS 071356Z 30011KT 10SM CLR 19/08 A2991 RMK AO2 SLP127 T01890083
KCHS 071256Z 28008KT 10SM CLR 17/09 A2991 RMK AO2 SLP128 T01670089
KCHS 071156Z 27009KT 10SM CLR 15/09 A2989 RMK AO2 SLP122 T01500089 10189 20133 53008
KCHS 071056Z 28006KT 10SM CLR 14/08 A2989 RMK AO2 SLP120 T01390083
KCHS 070956Z 28009KT 10SM CLR 14/09 A2987 RMK AO2 SLP115 T01440094
KCHS 070856Z 27005KT 10SM FEW030 16/12 A2987 RMK AO2 SLP114 T01560117 56009
KCHS 070756Z 29007KT 10SM FEW009 FEW020 17/15 A2988 RMK AO2 SLP116 T01720150
KCHS 070722Z 27007KT 8SM R15/5000VP6000FT MIFG FEW009 FEW020 18/17 A2988 RMK AO2 T01780167
KCHS 070656Z 30003KT 10SM FEW020 FEW060 17/17 A2988 RMK AO2 SLP117 T01720167
KCHS 070611Z 32003KT 10SM SCT019 17/16 A2989 RMK AO2 T01670156
KCHS 070556Z 00000KT 10SM BKN020 19/17 A2990 RMK AO2 SLP123 T01890172 10211 20172 56014
KCHS 070541Z 00000KT 10SM BKN020 18/17 A2990 RMK AO2 T01830172
KCHS 070456Z 00000KT 10SM FEW025 FEW060 18/17 A2991 RMK AO2 SLP127 T01830172 402610172
KCHS 070356Z 10005KT 10SM FEW018 FEW025 19/17 A2992 RMK AO2 SLP131 T01940172
KCHS 070256Z 17006KT 10SM FEW020 SCT070 19/17 A2994 RMK AO2 SLP136 T01890167 51008
KCHS 070156Z 12005KT 10SM FEW020 SCT065 20/17 A2993 RMK AO2 SLP135 T02000167
KCHS 070056Z 14004KT 10SM SCT020 SCT065 21/17 A2993 RMK AO2 SLP133 T02060167
KCHS 062356Z 10006KT 10SM FEW050 SCT070 SCT200 21/17 A2991 RMK AO2 SLP128 T02110167 10256 20211 53003
KCHS 062256Z 15007KT 10SM FEW045 SCT060 SCT200 22/17 A2990 RMK AO2 SLP124 T02220167
KCHS 062156Z 15010KT 10SM FEW040 SCT060 SCT075 22/16 A2990 RMK AO2 SLP124 T02220161
KCHS 062056Z 14009KT 10SM BKN040 BKN050 25/17 A2990 RMK AO2 SLP124 T02500167 56021
KCHS 061956Z 17007KT 10SM SCT040 BKN050 BKN070 24/16 A2992 RMK AO2 SLP130 T02390161
KCHS 061856Z 16008KT 10SM SCT040 BKN055 BKN200 25/16 A2993 RMK AO2 SLP134 T02500161
KCHS 061756Z 15007KT 10SM BKN045 26/16 A2996 RMK AO2 SLP145 T02560161 10261 20194 58014
KCHS 061656Z 23007KT 10SM SCT040 26/14 A2998 RMK AO2 SLP150 T02560144
KCHS 061556Z VRB05KT 10SM FEW040 25/14 A3000 RMK AO2 SLP158 T02500139